createdAt,value
2022-10-22T00:00:56.761Z,13.42
2022-10-22T00:03:24.527Z,13.38
2022-10-22T00:05:52.222Z,13.39
2022-10-22T00:08:20.121Z,13.33
2022-10-22T00:10:47.988Z,13.16
2022-10-22T00:13:17.492Z,13.07
2022-10-22T00:15:45.222Z,13.04
2022-10-22T00:18:12.926Z,13.06
2022-10-22T00:20:40.720Z,13.08
2022-10-22T00:23:08.453Z,13.08
2022-10-22T00:25:37.102Z,13.10
2022-10-22T00:28:05.116Z,13.15
2022-10-22T00:30:34.193Z,13.02
2022-10-22T00:33:01.901Z,12.97
2022-10-22T00:35:29.662Z,12.99
2022-10-22T00:37:57.395Z,13.01
2022-10-22T00:40:25.111Z,13.05
2022-10-22T00:42:52.922Z,13.09
2022-10-22T00:45:23.881Z,13.09
2022-10-22T00:48:00.546Z,13.10
2022-10-22T00:50:32.380Z,13.12
2022-10-22T00:53:02.310Z,13.17
2022-10-22T00:55:31.322Z,13.23
2022-10-22T00:57:59.498Z,13.24
2022-10-22T01:00:27.635Z,13.20
2022-10-22T01:02:58.853Z,13.22
2022-10-22T01:05:30.376Z,13.22
2022-10-22T01:07:58.274Z,13.24
2022-10-22T01:10:44.170Z,13.22
2022-10-22T01:13:23.526Z,13.20
2022-10-22T01:16:00.354Z,13.20
2022-10-22T01:18:37.962Z,13.24
2022-10-22T01:21:15.175Z,13.24
2022-10-22T01:24:09.578Z,13.22
2022-10-22T01:26:51.449Z,13.20
2022-10-22T01:29:26.753Z,13.18
2022-10-22T01:31:57.932Z,13.17
2022-10-22T01:34:28.224Z,13.12
2022-10-22T01:36:57.649Z,13.13
2022-10-22T01:39:28.224Z,13.13
2022-10-22T01:41:56.579Z,13.15
2022-10-22T01:44:30.734Z,13.16
2022-10-22T01:47:08.373Z,13.16
2022-10-22T01:49:52.042Z,13.13
2022-10-22T01:52:30.150Z,13.08
2022-10-22T01:55:08.808Z,13.06
2022-10-22T01:57:44.909Z,13.03
2022-10-22T02:00:18.187Z,13.01
2022-10-22T02:02:53.919Z,12.95
2022-10-22T02:05:26.233Z,12.91
2022-10-22T02:07:56.462Z,12.87
2022-10-22T02:10:25.661Z,12.81
2022-10-22T02:12:55.719Z,12.81
2022-10-22T02:15:28.370Z,12.78
2022-10-22T02:17:58.742Z,12.75
2022-10-22T02:20:29.289Z,12.73
2022-10-22T02:22:57.824Z,12.76
2022-10-22T02:25:29.349Z,12.77
2022-10-22T02:28:05.174Z,12.72
2022-10-22T02:30:36.788Z,12.64
2022-10-22T02:33:09.769Z,12.58
2022-10-22T02:35:39.838Z,12.62
2022-10-22T02:38:08.739Z,12.63
2022-10-22T02:40:36.595Z,12.61
2022-10-22T02:43:06.311Z,12.64
2022-10-22T02:45:35.864Z,12.66
2022-10-22T02:48:03.912Z,12.64
2022-10-22T02:50:31.718Z,12.65
2022-10-22T02:52:59.413Z,12.66
2022-10-22T02:55:27.175Z,12.61
2022-10-22T02:57:54.916Z,12.54
2022-10-22T03:00:23.127Z,12.53
2022-10-22T03:02:52.215Z,12.54
2022-10-22T03:05:19.968Z,12.46
2022-10-22T03:07:47.723Z,12.46
2022-10-22T03:10:15.610Z,12.48
2022-10-22T03:12:43.300Z,12.42
2022-10-22T03:15:11.609Z,12.42
2022-10-22T03:17:39.490Z,12.38
2022-10-22T03:20:09.870Z,12.41
2022-10-22T03:22:40.507Z,12.32
2022-10-22T03:25:12.219Z,12.39
2022-10-22T03:27:42.276Z,12.37
2022-10-22T03:30:11.611Z,12.43
2022-10-22T03:32:39.336Z,12.48
2022-10-22T03:35:09.166Z,12.59
2022-10-22T03:37:38.232Z,12.64
2022-10-22T03:40:08.537Z,12.68
2022-10-22T03:42:36.554Z,12.66
2022-10-22T03:45:05.117Z,12.65
2022-10-22T03:47:32.886Z,12.67
2022-10-22T03:50:00.598Z,12.64
2022-10-22T03:52:29.727Z,12.65
2022-10-22T03:54:57.698Z,12.69
2022-10-22T03:57:25.470Z,12.65
2022-10-22T03:59:53.181Z,12.68
2022-10-22T04:02:21.630Z,12.70
2022-10-22T04:04:49.370Z,12.67
2022-10-22T04:07:17.088Z,12.66
2022-10-22T04:09:46.182Z,12.61
2022-10-22T04:12:13.893Z,12.60
2022-10-22T04:14:41.631Z,12.59
2022-10-22T04:17:09.401Z,12.63
2022-10-22T04:19:37.185Z,12.62
2022-10-22T04:22:04.892Z,12.62
2022-10-22T04:24:33.420Z,12.62
2022-10-22T04:27:02.467Z,12.60
2022-10-22T04:29:30.181Z,12.56
2022-10-22T04:31:57.893Z,12.50
2022-10-22T04:34:28.584Z,12.49
2022-10-22T04:36:56.590Z,12.49
2022-10-22T04:39:24.368Z,12.50
2022-10-22T04:41:52.098Z,12.54
2022-10-22T04:44:21.131Z,12.51
2022-10-22T04:46:48.998Z,12.53
2022-10-22T04:49:16.761Z,12.54
2022-10-22T04:51:44.488Z,12.57
2022-10-22T04:54:12.242Z,12.57
2022-10-22T04:56:40.913Z,12.58
2022-10-22T04:59:10.155Z,12.56
2022-10-22T05:01:42.843Z,12.56
2022-10-22T05:04:13.473Z,12.57
2022-10-22T05:06:41.235Z,12.59
2022-10-22T05:09:13.823Z,12.51
2022-10-22T05:11:45.503Z,12.50
2022-10-22T05:14:14.020Z,12.51
2022-10-22T05:16:43.150Z,12.52
2022-10-22T05:19:17.860Z,12.52
2022-10-22T05:21:45.767Z,12.52
2022-10-22T05:24:14.144Z,12.49
2022-10-22T05:26:42.122Z,12.43
2022-10-22T05:29:09.857Z,12.43
2022-10-22T05:31:38.831Z,12.36
2022-10-22T05:34:07.954Z,12.32
2022-10-22T05:36:35.658Z,12.28
2022-10-22T05:39:03.670Z,12.27
2022-10-22T05:41:31.869Z,12.25
2022-10-22T05:44:00.926Z,12.19
2022-10-22T05:46:30.816Z,12.18
2022-10-22T05:49:00.107Z,12.19
2022-10-22T05:51:31.898Z,12.15
2022-10-22T05:54:01.431Z,12.11
2022-10-22T05:56:31.824Z,12.13
2022-10-22T05:59:00.314Z,12.06
2022-10-22T06:01:30.469Z,11.99
2022-10-22T06:03:59.572Z,11.94
2022-10-22T06:06:32.948Z,11.91
2022-10-22T06:09:03.368Z,11.90
2022-10-22T06:11:34.266Z,11.93
2022-10-22T06:14:03.571Z,11.96
2022-10-22T06:16:31.954Z,11.93
2022-10-22T06:19:01.785Z,11.92
2022-10-22T06:21:32.134Z,11.94
2022-10-22T06:24:01.405Z,11.96
2022-10-22T06:26:29.814Z,12.02
2022-10-22T06:28:58.125Z,12.04
2022-10-22T06:31:27.411Z,12.06
2022-10-22T06:33:55.445Z,12.11
2022-10-22T06:36:25.041Z,12.14
2022-10-22T06:38:55.696Z,12.08
2022-10-22T06:41:27.148Z,12.10
2022-10-22T06:43:58.219Z,12.11
2022-10-22T06:46:26.759Z,12.11
2022-10-22T06:48:56.433Z,12.10
2022-10-22T06:51:24.571Z,12.10
2022-10-22T06:53:52.293Z,12.10
2022-10-22T06:56:23.023Z,12.09
2022-10-22T06:58:51.187Z,12.13
2022-10-22T07:01:21.370Z,12.20
2022-10-22T07:03:51.509Z,12.24
2022-10-22T07:06:20.467Z,12.30
2022-10-22T07:08:48.374Z,12.33
2022-10-22T07:11:18.247Z,12.31
2022-10-22T07:13:47.641Z,12.34
2022-10-22T07:16:16.410Z,12.43
2022-10-22T07:18:45.077Z,12.57
2022-10-22T07:21:14.437Z,12.71
2022-10-22T07:23:42.523Z,12.75
2022-10-22T07:26:12.786Z,12.80
2022-10-22T07:28:41.201Z,12.86
2022-10-22T07:31:12.689Z,12.95
2022-10-22T07:33:41.162Z,13.00
2022-10-22T07:36:12.020Z,13.12
2022-10-22T07:38:39.777Z,13.13
2022-10-22T07:41:07.565Z,13.19
2022-10-22T07:43:35.487Z,13.36
2022-10-22T07:46:03.366Z,13.66
2022-10-22T07:48:32.465Z,14.12
2022-10-22T07:51:00.243Z,14.89
2022-10-22T07:53:28.064Z,15.94
2022-10-22T07:55:56.738Z,15.63
2022-10-22T07:58:25.244Z,15.32
2022-10-22T08:00:56.522Z,15.12
2022-10-22T08:03:24.481Z,14.98
2022-10-22T08:05:54.817Z,14.83
2022-10-22T08:08:25.868Z,14.83
2022-10-22T08:10:58.577Z,14.85
2022-10-22T08:13:27.425Z,14.83
2022-10-22T08:15:57.499Z,14.84
2022-10-22T08:18:25.661Z,14.91
2022-10-22T08:20:55.019Z,15.02
2022-10-22T08:23:26.025Z,14.98
2022-10-22T08:25:56.880Z,14.88
2022-10-22T08:28:24.780Z,14.84
2022-10-22T08:30:52.765Z,14.86
2022-10-22T08:33:20.784Z,14.83
2022-10-22T08:35:50.322Z,14.83
2022-10-22T08:38:20.284Z,14.80
2022-10-22T08:40:51.158Z,14.84
2022-10-22T08:43:59.234Z,14.92
2022-10-22T08:46:40.073Z,15.11
2022-10-22T08:49:18.408Z,15.21
2022-10-22T08:51:46.387Z,15.28
2022-10-22T08:54:27.520Z,15.32
2022-10-22T08:57:17.325Z,15.37
2022-10-22T08:59:48.823Z,15.37
2022-10-22T09:02:29.118Z,15.31
2022-10-22T09:05:10.036Z,15.25
2022-10-22T09:07:42.922Z,15.25
2022-10-22T09:10:12.881Z,15.26
2022-10-22T09:12:40.786Z,15.27
2022-10-22T09:15:14.294Z,15.30
2022-10-22T09:17:54.168Z,15.41
2022-10-22T09:20:29.745Z,15.52
2022-10-22T09:23:06.221Z,15.65
2022-10-22T09:25:37.887Z,15.71
2022-10-22T09:28:05.955Z,15.91
2022-10-22T09:30:37.875Z,16.18
2022-10-22T09:33:14.814Z,16.44
2022-10-22T09:35:47.078Z,16.77
2022-10-22T09:38:17.722Z,17.20
2022-10-22T09:40:49.788Z,17.49
2022-10-22T09:43:18.134Z,17.44
2022-10-22T09:45:47.276Z,17.45
2022-10-22T09:48:26.401Z,17.25
2022-10-22T09:51:00.232Z,17.22
2022-10-22T09:53:31.585Z,17.48
2022-10-22T09:56:02.628Z,17.60
2022-10-22T09:58:30.191Z,17.50
2022-10-22T10:01:00.309Z,17.63
2022-10-22T10:03:29.781Z,17.63
2022-10-22T10:06:03.273Z,17.41
2022-10-22T10:08:34.411Z,17.32
2022-10-22T10:11:11.869Z,17.33
2022-10-22T10:13:48.459Z,17.32
2022-10-22T10:16:32.906Z,17.55
2022-10-22T10:19:14.773Z,17.96
2022-10-22T10:21:50.449Z,18.41
2022-10-22T10:24:23.498Z,18.81
2022-10-22T10:26:59.516Z,18.85
2022-10-22T10:32:28.834Z,19.01
2022-10-22T10:35:04.723Z,18.84
2022-10-22T10:37:41.709Z,18.92
2022-10-22T10:40:24.020Z,19.05
2022-10-22T10:43:01.135Z,19.03
2022-10-22T10:45:38.082Z,19.21
2022-10-22T10:48:13.715Z,19.19
2022-10-22T10:50:52.193Z,19.25
2022-10-22T10:53:35.621Z,19.28
2022-10-22T10:56:15.732Z,19.35
2022-10-22T10:58:53.606Z,19.25
2022-10-22T11:01:28.642Z,19.10
2022-10-22T11:04:18.766Z,19.07
2022-10-22T11:06:47.628Z,18.94
2022-10-22T11:09:26.785Z,18.80
2022-10-22T11:11:59.250Z,18.68
2022-10-22T11:14:33.628Z,18.82
2022-10-22T11:17:07.149Z,18.90
2022-10-22T11:19:50.654Z,18.89
2022-10-22T11:22:27.029Z,18.90
2022-10-22T11:25:01.124Z,19.00
2022-10-22T11:27:37.103Z,18.97
2022-10-22T11:30:12.903Z,18.97
2022-10-22T11:32:42.879Z,19.22
2022-10-22T11:35:17.092Z,19.24
2022-10-22T11:37:47.827Z,19.16
2022-10-22T11:40:19.770Z,19.27
2022-10-22T11:42:51.057Z,19.35
2022-10-22T11:45:31.641Z,19.57
2022-10-22T11:48:05.895Z,19.64
2022-10-22T11:50:48.075Z,19.44
2022-10-22T11:53:21.185Z,19.44
2022-10-22T11:55:51.519Z,19.21
2022-10-22T11:58:43.741Z,19.11
2022-10-22T12:01:28.346Z,19.27
2022-10-22T12:04:18.852Z,19.42
2022-10-22T12:07:01.343Z,19.75
2022-10-22T12:09:32.764Z,20.06
2022-10-22T12:12:13.241Z,19.93
2022-10-22T12:14:53.592Z,19.69
2022-10-22T12:17:23.609Z,19.75
2022-10-22T12:20:02.071Z,19.73
2022-10-22T12:22:32.671Z,19.49
2022-10-22T12:25:03.127Z,19.33
2022-10-22T12:27:36.196Z,19.25
2022-10-22T12:30:18.877Z,19.37
2022-10-22T12:32:47.940Z,19.52
2022-10-22T12:35:18.855Z,19.42
2022-10-22T12:37:46.656Z,19.45
2022-10-22T12:40:20.761Z,19.56
2022-10-22T12:42:50.982Z,20.02
2022-10-22T12:45:19.626Z,20.34
2022-10-22T12:47:49.374Z,20.89
2022-10-22T12:50:20.130Z,21.31
2022-10-22T12:52:48.422Z,21.71
2022-10-22T12:55:17.775Z,21.91
2022-10-22T12:57:48.310Z,22.08
2022-10-22T13:00:26.125Z,22.17
2022-10-22T13:02:58.453Z,21.89
2022-10-22T13:05:28.420Z,22.01
2022-10-22T13:08:04.780Z,22.07
2022-10-22T13:10:35.038Z,22.33
2022-10-22T13:13:06.705Z,22.38
2022-10-22T13:15:38.495Z,22.17
2022-10-22T13:18:17.000Z,22.52
2022-10-22T13:20:53.376Z,22.82
2022-10-22T13:23:23.878Z,22.89
2022-10-22T13:26:00.125Z,22.98
2022-10-22T13:28:29.531Z,22.92
2022-10-22T13:30:59.626Z,22.85
2022-10-22T13:33:34.618Z,22.78
2022-10-22T13:38:30.888Z,22.65
2022-10-22T13:40:59.260Z,22.69
2022-10-22T13:43:27.317Z,22.89
2022-10-22T13:45:58.419Z,22.78
2022-10-22T13:48:29.993Z,22.74
2022-10-22T13:50:57.766Z,22.22
2022-10-22T13:53:27.710Z,21.77
2022-10-22T13:55:55.548Z,21.54
2022-10-22T13:58:25.284Z,21.42
2022-10-22T14:00:55.722Z,21.37
2022-10-22T14:03:27.521Z,21.33
2022-10-22T14:05:57.087Z,21.26
2022-10-22T14:08:26.425Z,21.11
2022-10-22T14:10:54.445Z,21.05
2022-10-22T14:13:22.653Z,21.05
2022-10-22T14:15:52.500Z,21.11
2022-10-22T14:18:25.526Z,21.04
2022-10-22T14:20:55.069Z,20.92
2022-10-22T14:23:26.531Z,20.89
2022-10-22T14:25:54.530Z,20.98
2022-10-22T14:28:22.342Z,21.16
2022-10-22T14:30:50.932Z,20.95
2022-10-22T14:33:28.763Z,20.89
2022-10-22T14:35:59.836Z,20.81
2022-10-22T14:38:29.228Z,20.54
2022-10-22T14:40:58.066Z,20.45
2022-10-22T14:43:28.719Z,20.31
2022-10-22T14:45:56.855Z,20.15
2022-10-22T14:48:24.761Z,20.05
2022-10-22T14:50:52.679Z,19.77
2022-10-22T14:53:20.576Z,19.58
2022-10-22T14:55:51.490Z,19.57
2022-10-22T14:58:19.051Z,19.21
2022-10-22T15:00:46.812Z,19.24
2022-10-22T15:03:14.677Z,19.21
2022-10-22T15:05:44.323Z,19.25
2022-10-22T15:08:13.373Z,19.22
2022-10-22T15:10:41.481Z,19.20
2022-10-22T15:13:10.626Z,19.15
2022-10-22T15:15:40.965Z,19.27
2022-10-22T15:18:08.943Z,19.06
2022-10-22T15:20:36.668Z,18.97
2022-10-22T15:23:04.588Z,18.93
2022-10-22T15:25:32.341Z,18.97
2022-10-22T15:28:02.014Z,18.91
2022-10-22T15:30:33.858Z,18.87
2022-10-22T15:33:02.811Z,18.85
2022-10-22T15:35:30.575Z,18.73
2022-10-22T15:37:58.313Z,18.56
2022-10-22T15:40:26.052Z,18.60
2022-10-22T15:42:53.821Z,18.58
2022-10-22T15:45:22.633Z,18.58
2022-10-22T15:47:51.693Z,18.53
2022-10-22T15:50:19.444Z,18.45
2022-10-22T15:52:47.179Z,18.29
2022-10-22T15:55:15.411Z,18.23
2022-10-22T15:57:43.399Z,18.18
2022-10-22T16:00:12.748Z,18.07
2022-10-22T16:02:40.541Z,18.00
2022-10-22T16:05:10.877Z,18.01
2022-10-22T16:07:38.991Z,17.88
2022-10-22T16:10:08.052Z,17.81
2022-10-22T16:12:36.726Z,17.78
2022-10-22T16:15:04.998Z,17.50
2022-10-22T16:17:32.718Z,17.43
2022-10-22T16:20:00.537Z,17.36
2022-10-22T16:22:29.682Z,17.24
2022-10-22T16:24:57.422Z,17.14
2022-10-22T16:27:25.160Z,16.91
2022-10-22T16:29:52.982Z,16.80
2022-10-22T16:32:20.749Z,16.71
2022-10-22T16:34:48.462Z,16.60
2022-10-22T16:37:16.213Z,16.45
2022-10-22T16:39:45.265Z,16.11
2022-10-22T16:42:13.007Z,15.93
2022-10-22T16:44:40.708Z,15.86
2022-10-22T16:47:08.501Z,15.85
2022-10-22T16:49:36.180Z,15.80
2022-10-22T16:52:04.040Z,15.71
2022-10-22T16:54:31.901Z,15.56
2022-10-22T16:57:01.026Z,15.44
2022-10-22T16:59:28.809Z,15.32
2022-10-22T17:01:57.396Z,15.20
2022-10-22T17:04:25.153Z,15.15
2022-10-22T17:06:52.869Z,15.08
2022-10-22T17:09:20.804Z,15.06
2022-10-22T17:11:48.658Z,15.04
2022-10-22T17:14:17.777Z,14.96
2022-10-22T17:16:48.801Z,14.82
2022-10-22T17:19:16.654Z,14.69
2022-10-22T17:21:44.457Z,14.65
2022-10-22T17:24:12.201Z,14.63
2022-10-22T17:26:39.942Z,14.63
2022-10-22T17:29:07.926Z,14.59
2022-10-22T17:31:37.969Z,14.59
2022-10-22T17:34:06.995Z,14.59
2022-10-22T17:36:36.165Z,14.70
2022-10-22T17:39:06.852Z,14.67
2022-10-22T17:41:36.758Z,14.50
2022-10-22T17:44:06.951Z,14.47
2022-10-22T17:46:34.701Z,14.52
2022-10-22T17:49:07.509Z,14.37
2022-10-22T17:51:35.410Z,14.15
2022-10-22T17:54:05.969Z,13.97
2022-10-22T17:56:37.012Z,13.94
2022-10-22T17:59:04.773Z,13.89
2022-10-22T18:01:35.644Z,13.90
2022-10-22T18:04:06.531Z,13.86
2022-10-22T18:06:35.580Z,13.87
2022-10-22T18:09:05.733Z,13.89
2022-10-22T18:11:36.386Z,14.02
2022-10-22T18:14:04.985Z,14.15
2022-10-22T18:16:32.815Z,14.23
2022-10-22T18:19:01.152Z,14.25
2022-10-22T18:21:32.777Z,14.29
2022-10-22T18:24:00.555Z,14.34
2022-10-22T18:26:28.506Z,14.37
2022-10-22T18:28:56.302Z,14.34
2022-10-22T18:31:26.012Z,14.33
2022-10-22T18:36:28.076Z,14.30
2022-10-22T18:38:59.127Z,14.15
2022-10-22T18:41:27.255Z,14.19
2022-10-22T18:43:57.128Z,14.20
2022-10-22T18:46:25.203Z,14.07
2022-10-22T18:48:53.925Z,14.09
2022-10-22T18:51:22.054Z,14.11
2022-10-22T18:54:04.555Z,14.11
2022-10-22T18:56:41.493Z,14.08
2022-10-22T18:59:16.106Z,13.88
2022-10-22T19:01:43.898Z,13.67
2022-10-22T19:04:12.714Z,13.46
2022-10-22T19:06:45.065Z,13.38
2022-10-22T19:09:13.700Z,13.28
2022-10-22T20:57:07.037Z,11.75
2022-10-22T20:59:35.298Z,11.71
2022-10-22T21:02:04.882Z,11.72
2022-10-22T21:04:32.637Z,11.75
2022-10-22T21:07:00.393Z,11.76
2022-10-22T21:09:28.181Z,11.81
2022-10-22T21:11:56.906Z,11.84
2022-10-22T21:14:26.069Z,11.90
2022-10-22T21:16:53.779Z,11.97
2022-10-22T21:19:22.482Z,11.93
2022-10-22T21:21:50.444Z,11.96
2022-10-22T21:24:18.376Z,12.05
2022-10-22T21:26:46.150Z,12.13
2022-10-22T21:29:14.404Z,12.19
2022-10-22T21:31:43.470Z,12.22
2022-10-22T21:34:12.942Z,12.26
2022-10-22T21:36:40.771Z,12.29
2022-10-22T21:39:08.555Z,12.32
2022-10-22T21:41:37.746Z,12.30
2022-10-22T21:44:05.930Z,12.28
2022-10-22T21:46:33.693Z,12.21
2022-10-22T21:49:04.487Z,12.16
2022-10-22T21:51:35.074Z,12.21
2022-10-22T21:54:02.845Z,12.24
2022-10-22T21:56:33.120Z,12.29
2022-10-22T21:59:00.933Z,12.31
2022-10-22T22:01:29.267Z,12.30
2022-10-22T22:03:57.117Z,12.28
2022-10-22T22:06:30.690Z,12.19
2022-10-22T22:09:00.793Z,12.13
2022-10-22T22:11:29.690Z,12.03
2022-10-22T22:13:58.696Z,11.91
2022-10-22T22:16:29.249Z,11.93
2022-10-22T22:18:57.957Z,11.92
2022-10-22T22:21:28.027Z,11.90
2022-10-22T22:23:55.811Z,11.91
2022-10-22T22:26:28.709Z,11.92
2022-10-22T22:28:58.243Z,11.89
2022-10-22T22:31:28.529Z,11.92
2022-10-22T22:33:59.986Z,11.93
2022-10-22T22:36:29.251Z,11.96
2022-10-22T22:38:57.658Z,11.98
2022-10-22T22:41:25.544Z,11.99
2022-10-22T22:43:53.304Z,12.02
2022-10-22T22:46:21.008Z,12.03
2022-10-22T22:48:49.020Z,12.04
2022-10-22T22:51:17.309Z,12.03
2022-10-22T22:53:46.657Z,12.03
2022-10-22T22:56:16.856Z,12.03
2022-10-22T22:58:44.630Z,12.02
2022-10-22T23:01:15.674Z,11.98
2022-10-22T23:03:43.981Z,11.91
2022-10-22T23:06:12.549Z,11.88
2022-10-22T23:08:40.654Z,11.89
2022-10-22T23:11:11.893Z,11.91
2022-10-22T23:13:40.748Z,11.90
2022-10-22T23:16:09.811Z,11.92
2022-10-22T23:18:37.538Z,11.89
2022-10-22T23:21:06.605Z,11.89
2022-10-22T23:23:34.572Z,11.95
2022-10-22T23:26:02.578Z,11.97
2022-10-22T23:28:31.632Z,11.97
2022-10-22T23:30:59.394Z,11.94
2022-10-22T23:33:27.666Z,11.93
2022-10-22T23:35:55.525Z,11.96
2022-10-22T23:38:23.414Z,11.97
2022-10-22T23:40:56.517Z,12.02
2022-10-22T23:43:24.330Z,12.04
2022-10-22T23:45:53.869Z,12.04
2022-10-22T23:48:22.006Z,12.03
2022-10-22T23:50:50.116Z,11.96
2022-10-22T23:53:18.078Z,11.84
2022-10-22T23:55:45.945Z,11.72
2022-10-22T23:58:13.791Z,11.65
